Barney, ND (58008)

11:08 AM CDT on May 25, 2015 (GMT -0500)
Stern | | Change Station
CLOSE
Current Station
Airport
Location: Wahpeton,
Elevation: 968 ft
Nearby Weather Stations

Elev 968 ft 46.24 °N, 96.61 °W | Updated 18 minutes ago

Rain
Rain
55 °F
Feels Like 55 °F
N
13
Wind Variable Wind from North
Gusts 18 mph

Today
High -- | Low -- °F
--% Chance of Precip.
Yesterday
High -- | Low -- °F
Precip. -- in
5:44 AM 9:05 PM
Waxing Crescent, 49% visible
Pressure 29.74 in
Visibility 7.0 miles
Clouds Scattered Clouds 800 ft
Scattered Clouds 1900 ft
Mostly Cloudy 6000 ft
Dew Point 54 °F
Humidity 94%
Rainfall 1.18 in
Snow Depth Not available.
UV 4 out of 12
Pollen 6.40 out of 12
Air Quality Not available.
Flu Activity Sporadic
METAR KBWP 251550Z AUTO 01011G16KT 7SM SCT008 SCT019 BKN060 13/12 A2974 RMK AO1 P0008

More Conditions Fewer Conditions

Pressure 29.74 in
Visibility 7.0 miles
Clouds Scattered Clouds 800 ft
Scattered Clouds 1900 ft
Mostly Cloudy 6000 ft
Dew Point 54 °F
Humidity 94%
Rainfall 1.18 in
Snow Depth Not available.
UV 4 out of 12
Pollen 6.40 out of 12
Air Quality Not available.
Flu Activity Sporadic
METAR KBWP 251550Z AUTO 01011G16KT 7SM SCT008 SCT019 BKN060 13/12 A2974 RMK AO1 P0008

More Conditions Fewer Conditions

10-Day Weather Forecast

Almanac

Astronomy

May. 25, 2015 Rise Set
Actual Time
Civil Twilight
Nautical Twilight
Astronomical Twilight
Moon
Length of Visible Light
Length of Day
Tomorrow will be .
, % of the Moon is Illuminated

Today's Extremes

State Highs State Lows

Community

WunderPhotos

Upload Photos

1,824,033 photos uploaded!

WunderBlogs® & News

Nearby

Air Quality

  Air Quality AQ Index Pollutant
Not available.

Snow Depth

Station Depth Elevation

Earthquake Activity

City Distance Mag. Time & Date
Minimum magnitude displayed is 2.5.

Coastal Water Temperatures

Place Temperature

Stations

Nearby Weather Stations

Station Location Temp. Windchill Dew Point Humidity Wind Precip. Elev Updated Type